• Join FlightAware (Why Join?)
  • Login
  • US Flag 
11:06PM EDT


 

Airport Tracker/Info


-or-


 

Live Flight TrackerFlight Track Log ✈ RPA3247 ✈ 08-May-2013 ✈ KDCA - KMSY

Flight Track Log - Related Links

Times and Time Zones

All times are in EDT time to prevent confusion due to time zone crossing. See the RPA3247 flight status page for this flight to view local times or setup timezone preferences in your user account.

Time Position Orientation Groundspeed Altitude Reporting Facility
EDT Latitude Longitude Course Direction KTS MPH feet Rate Location/Type
10:55PM 38.7667 -77.0333 180° South 196 226 2,900  Level Potomac TRACON
10:56PM 38.6852 -77.3463 237° Southwest  Level FlightAware Approximate
10:56PM 38.7000 -77.0667 201° Southwest 267 307 4,900  Level Potomac TRACON
10:57PM 38.6266 -77.4494 234° Southwest  Level FlightAware Approximate
10:58PM 38.5841 -77.5642 247° West  Level FlightAware Approximate
10:58PM 38.6833 -77.1667 258° West 276 318 6,400  Level Potomac TRACON
10:59PM 38.5283 -77.6695 233° Southwest  Level FlightAware Approximate
10:59PM 38.6667 -77.2500 256° West 280 322 9,600  Level Potomac TRACON
11:00PM 38.4661 -77.7677 236° Southwest  Level FlightAware Approximate
11:00PM 38.6167 -77.3667 241° Southwest 330 380 11,400  Level Potomac TRACON
11:01PM 38.5833 -77.4833 250° West 352 405 14,000 2,340 Climbing Potomac TRACON
11:02PM 38.5442 -77.6144 249° West 383 441 16,500 2,040 Climbing Washington Center
11:03PM 38.5044 -77.7328 247° West 383 441 18,400 1,980 Climbing Washington Center
11:04PM 38.4544 -77.8481 241° Southwest 378 435 20,500 1,860 Climbing Washington Center
11:05PM 38.4042 -77.9683 242° Southwest 383 441 22,200 1,620 Climbing Washington Center
11:06PM 38.3517 -78.0911 241° Southwest 389 448 23,800 1,380 Climbing Washington Center
11:07PM 38.3078 -78.1875 240° Southwest 389 448 25,000 1,260 Climbing Washington Center
11:08PM 38.2419 -78.3411 241° Southwest 400 460 26,400 1,260 Climbing Washington Center
11:09PM 38.1847 -78.4711 241° Southwest 412 474 27,600 1,200 Climbing Washington Center
11:10PM 38.1292 -78.6036 242° Southwest 417 480 28,800 1,080 Climbing Washington Center
11:11PM 38.0717 -78.7333 241° Southwest 427 491 29,800 600 Climbing Washington Center
11:12PM 38.0100 -78.8519 237° Southwest 439 505 30,000 60 Climbing Washington Center
11:13PM 37.9236 -78.9614 225° Southwest 444 511 30,000  Level Washington Center
11:14PM 37.8328 -79.0731 224° Southwest 449 517 30,000  Level Washington Center
11:15PM 37.7419 -79.1817 223° Southwest 454 522 30,000 780 Level Washington Center
11:16PM 37.6406 -79.2975 222° Southwest 454 522 31,600 1,500 Climbing Washington Center
11:17PM 37.5597 -79.4089 228° Southwest 442 509 33,100 1,440 Climbing Washington Center
11:18PM 37.4975 -79.5314 237° Southwest 425 489 34,600 960 Climbing Washington Center
11:19PM 37.4481 -79.6361 239° Southwest 402 463 35,100 420 Climbing Washington Center
11:20PM 37.3828 -79.7764 240° Southwest 414 476 35,500 300 Climbing Washington Center
11:21PM 37.3264 -79.8961 239° Southwest 414 476 35,800 240 Climbing Washington Center
11:22PM 37.2675 -80.0208 239° Southwest 414 476 36,000 60 Climbing Washington Center
11:23PM 37.2064 -80.1475 239° Southwest 414 476 36,000  Level Washington Center
11:24PM 37.1472 -80.2744 240° Southwest 414 476 36,000  Level Washington Center
11:24PM 37.1256 -80.3111 233° Southwest 425 489 36,000  Level Atlanta Center
11:25PM 37.0689 -80.4361 240° Southwest 425 489 36,000  Level Atlanta Center
11:26PM 37.0081 -80.5636 239° Southwest 425 489 36,000  Level Atlanta Center
11:27PM 36.9447 -80.6883 238° Southwest 425 489 36,000  Level Atlanta Center
11:28PM 36.8836 -80.8156 239° Southwest 425 489 36,000  Level Atlanta Center
11:29PM 36.8300 -80.9294 240° Southwest 436 502 36,000  Level Atlanta Center
11:30PM 36.7667 -81.0561 238° Southwest 436 502 36,000  Level Atlanta Center
11:31PM 36.7089 -81.1800 240° Southwest 425 489 36,000  Level Atlanta Center
11:32PM 36.6433 -81.3169 239° Southwest 425 489 36,000  Level Atlanta Center
11:33PM 36.5814 -81.4431 239° Southwest 439 505 36,000  Level Atlanta Center
11:34PM 36.5172 -81.5692 238° Southwest 430 495 36,000  Level Atlanta Center
11:35PM 36.4572 -81.6950 239° Southwest 435 501 36,000  Level Atlanta Center
11:36PM 36.3950 -81.8231 239° Southwest 435 501 36,000  Level Atlanta Center
11:37PM 36.3364 -81.9356 237° Southwest 435 501 36,000  Level Atlanta Center
11:38PM 36.2717 -82.0608 237° Southwest 435 501 36,000  Level Atlanta Center
11:39PM 36.2031 -82.2017 239° Southwest 430 495 36,000  Level Atlanta Center
11:40PM 36.1442 -82.3133 237° Southwest 440 506 36,000  Level Atlanta Center
11:41PM 36.0811 -82.4406 239° Southwest 440 506 36,000  Level Atlanta Center
11:42PM 36.0161 -82.5678 238° Southwest 440 506 36,000  Level Atlanta Center
11:43PM 35.9508 -82.6972 238° Southwest 440 506 36,000  Level Atlanta Center
11:44PM 35.8875 -82.8214 238° Southwest 435 501 36,000  Level Atlanta Center
11:45PM 35.8239 -82.9478 238° Southwest 435 501 36,000  Level Atlanta Center
11:46PM 35.7583 -83.0739 237° Southwest 435 501 36,000  Level Atlanta Center
11:47PM 35.6925 -83.2000 237° Southwest 435 501 36,000  Level Atlanta Center
11:48PM 35.6225 -83.3386 238° Southwest 435 501 36,000  Level Atlanta Center
11:49PM 35.5542 -83.4619 236° Southwest 440 506 36,000  Level Atlanta Center
11:50PM 35.4922 -83.5847 238° Southwest 435 501 36,000  Level Atlanta Center
11:51PM 35.4258 -83.7125 238° Southwest 435 501 36,000  Level Atlanta Center
11:52PM 35.3572 -83.8400 237° Southwest 435 501 36,000  Level Atlanta Center
11:53PM 35.2925 -83.9650 238° Southwest 435 501 36,000  Level Atlanta Center
11:54PM 35.2258 -84.0922 237° Southwest 435 501 36,000  Level Atlanta Center
11:55PM 35.1569 -84.2167 236° Southwest 435 501 36,000  Level Atlanta Center
11:56PM 35.1044 -84.3181 238° Southwest 435 501 36,000  Level Atlanta Center
11:57PM 35.0311 -84.4522 236° Southwest 435 501 36,000  Level Atlanta Center
11:58PM 34.9661 -84.5786 238° Southwest 440 506 36,000  Level Atlanta Center
11:59PM 34.8964 -84.7022 236° Southwest 440 506 36,000  Level Atlanta Center
12:00AM 34.8289 -84.8283 237° Southwest 440 506 36,000  Level Atlanta Center
12:01AM 34.7614 -84.9542 237° Southwest 440 506 36,000  Level Atlanta Center
12:02AM 34.6936 -85.0797 237° Southwest 440 506 36,000  Level Atlanta Center
12:03AM 34.6236 -85.2000 235° Southwest 440 506 36,000  Level Atlanta Center
12:04AM 34.5578 -85.3250 237° Southwest 440 506 36,000  Level Atlanta Center
12:05AM 34.4894 -85.4475 236° Southwest 440 506 36,000  Level Atlanta Center
12:06AM 34.4214 -85.5672 235° Southwest 435 501 36,000  Level Atlanta Center
12:07AM 34.3508 -85.7019 238° Southwest 435 501 36,000  Level Atlanta Center
12:08AM 34.2844 -85.8161 235° Southwest 430 495 36,000  Level Atlanta Center
12:09AM 34.2181 -85.9328 235° Southwest 430 495 36,000  Level Atlanta Center
12:10AM 34.1514 -86.0494 235° Southwest 424 488 36,000  Level Atlanta Center
12:11AM 34.0847 -86.1708 236° Southwest 430 495 36,000  Level Atlanta Center
12:12AM 34.0200 -86.2869 236° Southwest 430 495 36,000  Level Atlanta Center
12:13AM 33.9511 -86.4028 234° Southwest 430 495 36,000  Level Atlanta Center
12:14AM 33.8861 -86.5211 237° Southwest 430 495 36,000  Level Atlanta Center
12:15AM 33.8256 -86.6244 235° Southwest 435 501 36,000  Level Atlanta Center
12:16AM 33.7583 -86.7397 235° Southwest 435 501 36,000  Level Atlanta Center
12:17AM 33.6931 -86.8575 236° Southwest 435 501 36,000  Level Atlanta Center
12:18AM 33.6217 -86.9700 233° Southwest 430 495 36,000  Level Atlanta Center
12:19AM 33.5481 -87.0797 231° Southwest 435 501 36,000  Level Atlanta Center
12:20AM 33.4764 -87.1892 232° Southwest 430 495 36,000  Level Atlanta Center
12:21AM 33.4025 -87.3008 232° Southwest 430 495 36,000  Level Atlanta Center
12:22AM 33.3286 -87.4100 231° Southwest 430 495 36,000  Level Atlanta Center
12:24AM 33.1847 -87.6269 232° Southwest 425 489 36,000  Level Memphis Center
12:25AM 33.1097 -87.7358 231° Southwest 425 489 36,000  Level Memphis Center
12:26AM 33.0369 -87.8469 232° Southwest 425 489 36,000  Level Memphis Center
12:27AM 32.9597 -87.9631 232° Southwest 425 489 36,000  Level Memphis Center
12:28AM 32.8867 -88.0714 231° Southwest 425 489 36,000  Level Memphis Center
12:29AM 32.8114 -88.1797 230° Southwest 430 495 36,000  Level Memphis Center
12:30AM 32.7361 -88.2853 230° Southwest 430 495 36,000  Level Memphis Center
12:31AM 32.6647 -88.3931 232° Southwest 430 495 36,000  Level Memphis Center
12:32AM 32.5911 -88.5006 231° Southwest 430 495 36,000  Level Memphis Center
12:33AM 32.5175 -88.6081 231° Southwest 430 495 36,000  Level Memphis Center
12:34AM 32.4439 -88.7153 231° Southwest 430 495 36,000  Level Memphis Center
12:35AM 32.3658 -88.8200 229° Southwest 430 495 36,000  Level Memphis Center
12:36AM 32.2750 -88.9078 219° Southwest 420 483 36,000  Level Memphis Center
12:37AM 32.1822 -88.9975 219° Southwest 426 490 36,000  Level Memphis Center
12:38AM 32.0914 -89.0872 220° Southwest 431 496 36,000 -180 Level Memphis Center
12:39AM 31.9961 -89.1742 218° Southwest 431 496 35,700 -1,560 Descending Memphis Center
12:41AM 31.8192 -89.3464 220° Southwest 428 493 31,300 -2,160 Descending Houston Center
12:42AM 31.7258 -89.4339 219° Southwest 431 496 29,000 -1,680 Descending Houston Center
12:43AM 31.6122 -89.5439 220° Southwest 445 512 28,000 -540 Descending Houston Center
12:44AM 31.5311 -89.6214 219° Southwest 447 514 28,000  Level Houston Center
12:45AM 31.4347 -89.7119 219° Southwest 447 514 28,000  Level Houston Center
12:46AM 31.3403 -89.8019 219° Southwest 441 507 28,000 -900 Level Houston Center
12:47AM 31.2450 -89.8928 219° Southwest 444 511 26,300 -2,040 Descending Houston Center
12:48AM 31.1531 -89.9792 219° Southwest 431 496 24,000 -2,460 Descending Houston Center
12:49AM 31.0447 -90.0800 219° Southwest 419 482 21,400 -2,400 Descending Houston Center
12:50AM 30.9572 -90.1619 219° Southwest 407 468 19,300 -2,040 Descending Houston Center
12:51AM 30.8817 -90.2147 211° Southwest 398 458 17,800 -2,100 Descending Houston Center
12:52AM 30.7536 -90.2186 181° South 389 448 15,100 -2,220 Descending Houston Center
12:53AM 30.6503 -90.1989 171° South 378 435 13,000 -1,980 Descending Houston Center
12:54AM 30.5561 -90.1781 169° South 356 410 11,200 -1,560 Descending Houston Center
12:55AM 30.4683 -90.1597 170° South 329 379 9,900 -1,440 Descending Houston Center
12:56AM 30.3886 -90.1425 169° South 297 342 8,300 -1,620 Descending Houston Center
12:57AM 30.3114 -90.1500 185° South 291 335 6,700 -1,560 Descending Houston Center
12:58AM 30.2403 -90.1714 195° South 272 313 5,200 -1,500 Descending Houston Center
12:59AM 30.1758 -90.1919 195° South 252 290 3,700 -1,380 Descending Houston Center
01:00AM 30.1189 -90.2083 194° South 225 259 2,500 -1,140 Descending Houston Center
01:01AM 30.0711 -90.2242 196° South 193 222 1,500 -900 Descending Houston Center
01:02AM 30.0375 -90.2356 196° South 154 177 700 -600 Descending Houston Center
01:03AM 30.0022 -90.2475 196° South 133 153 300 -420 Descending Houston Center